createdAt,value
2022-09-23T00:02:10.358Z,8.33
2022-09-23T00:05:11.831Z,8.33
2022-09-23T00:08:13.176Z,8.32
2022-09-23T00:11:18.116Z,8.31
2022-09-23T00:14:19.468Z,8.28
2022-09-23T00:17:20.825Z,8.26
2022-09-23T00:20:22.157Z,8.22
2022-09-23T00:23:23.580Z,8.22
2022-09-23T00:26:25.081Z,8.23
2022-09-23T00:29:26.504Z,8.22
2022-09-23T00:32:28.129Z,8.19
2022-09-23T00:35:29.472Z,8.13
2022-09-23T00:38:30.889Z,8.07
2022-09-23T00:41:32.786Z,8.01
2022-09-23T00:44:52.559Z,8.00
2022-09-23T00:47:57.921Z,7.97
2022-09-23T00:50:59.334Z,7.95
2022-09-23T00:54:02.006Z,7.96
2022-09-23T00:57:04.250Z,7.95
2022-09-23T01:00:07.290Z,7.95
2022-09-23T01:03:08.673Z,7.90
2022-09-23T01:06:10.762Z,7.89
2022-09-23T01:09:12.299Z,7.85
2022-09-23T01:12:34.874Z,7.85
2022-09-23T01:15:53.788Z,7.80
2022-09-23T01:19:06.410Z,7.78
2022-09-23T01:22:16.259Z,7.74
2022-09-23T01:25:39.039Z,7.73
2022-09-23T01:28:59.303Z,7.69
2022-09-23T01:32:13.448Z,7.65
2022-09-23T01:35:23.661Z,7.63
2022-09-23T01:39:03.426Z,7.56
2022-09-23T01:42:15.417Z,7.56
2022-09-23T01:45:31.349Z,7.54
2022-09-23T01:48:39.579Z,7.53
2022-09-23T01:51:47.905Z,7.52
2022-09-23T01:55:14.716Z,7.50
2022-09-23T01:58:24.365Z,7.49
2022-09-23T02:01:36.550Z,7.46
2022-09-23T02:04:50.253Z,7.43
2022-09-23T02:07:57.569Z,7.24
2022-09-23T02:11:05.113Z,7.35
2022-09-23T02:14:22.322Z,7.35
2022-09-23T02:17:33.677Z,7.35
2022-09-23T02:20:38.397Z,7.38
2022-09-23T02:23:45.185Z,7.39
2022-09-23T02:26:51.234Z,7.36
2022-09-23T02:30:01.781Z,7.37
2022-09-23T02:33:12.218Z,7.34
2022-09-23T02:36:24.746Z,7.32
2022-09-23T02:39:36.022Z,7.30
2022-09-23T02:43:13.731Z,7.21
2022-09-23T02:46:16.060Z,7.20
2022-09-23T02:49:22.346Z,7.20
2022-09-23T02:52:23.747Z,7.20
2022-09-23T02:55:28.834Z,7.21
2022-09-23T02:58:30.789Z,7.19
2022-09-23T03:02:08.328Z,7.16
2022-09-23T03:05:21.422Z,7.17
2022-09-23T03:08:35.484Z,7.16
2022-09-23T03:11:41.558Z,7.22
2022-09-23T03:14:54.363Z,7.23
2022-09-23T03:18:15.384Z,7.24
2022-09-23T03:21:28.235Z,7.28
2022-09-23T03:24:31.974Z,7.27
2022-09-23T03:27:35.802Z,7.30
2022-09-23T03:30:38.513Z,7.27
2022-09-23T03:33:45.268Z,7.24
2022-09-23T03:36:58.457Z,7.20
2022-09-23T03:40:18.049Z,7.11
2022-09-23T03:43:19.872Z,7.02
2022-09-23T03:46:21.212Z,6.92
2022-09-23T03:49:29.540Z,6.84
2022-09-23T03:52:31.073Z,6.74
2022-09-23T03:55:32.572Z,6.68
2022-09-23T03:58:33.906Z,6.63
2022-09-23T04:01:35.213Z,6.57
2022-09-23T04:04:38.012Z,6.54
2022-09-23T04:07:40.177Z,6.48
2022-09-23T04:10:41.607Z,6.48
2022-09-23T04:13:42.928Z,6.54
2022-09-23T04:16:44.436Z,6.56
2022-09-23T04:19:46.767Z,6.61
2022-09-23T04:22:48.091Z,6.66
2022-09-23T04:25:49.825Z,6.73
2022-09-23T04:28:51.162Z,6.80
2022-09-23T04:31:53.765Z,6.85
2022-09-23T04:34:55.170Z,6.86
2022-09-23T04:37:56.494Z,6.88
2022-09-23T04:40:57.824Z,6.90
2022-09-23T04:44:00.752Z,6.92
2022-09-23T04:47:02.211Z,6.94
2022-09-23T04:50:04.008Z,6.93
2022-09-23T04:53:05.807Z,6.89
2022-09-23T04:56:15.835Z,6.81
2022-09-23T04:59:17.171Z,6.75
2022-09-23T05:02:18.594Z,6.73
2022-09-23T05:05:20.035Z,6.72
2022-09-23T05:08:21.412Z,6.68
2022-09-23T05:11:23.717Z,6.69
2022-09-23T05:14:25.063Z,6.69
2022-09-23T05:17:26.509Z,6.71
2022-09-23T05:20:27.909Z,6.75
2022-09-23T05:23:30.437Z,6.79
2022-09-23T05:26:32.730Z,6.84
2022-09-23T05:29:34.550Z,6.88
2022-09-23T05:32:35.923Z,6.90
2022-09-23T05:35:37.314Z,6.93
2022-09-23T05:38:39.289Z,6.94
2022-09-23T05:41:40.633Z,6.95
2022-09-23T05:44:41.948Z,6.94
2022-09-23T05:47:43.285Z,6.97
2022-09-23T05:50:51.550Z,6.99
2022-09-23T05:53:54.816Z,7.01
2022-09-23T05:56:56.613Z,7.01
2022-09-23T05:59:58.973Z,7.04
2022-09-23T06:03:00.390Z,7.07
2022-09-23T06:06:01.817Z,7.11
2022-09-23T06:09:04.410Z,7.20
2022-09-23T06:12:05.866Z,7.19
2022-09-23T06:15:07.598Z,7.20
2022-09-23T06:18:09.022Z,7.20
2022-09-23T06:21:14.006Z,7.20
2022-09-23T06:24:19.642Z,7.20
2022-09-23T06:27:22.090Z,7.29
2022-09-23T06:30:23.438Z,7.43
2022-09-23T06:33:34.926Z,7.62
2022-09-23T06:36:43.931Z,7.70
2022-09-23T06:39:46.610Z,7.90
2022-09-23T06:42:52.301Z,8.09
2022-09-23T06:45:54.615Z,8.63
2022-09-23T06:48:55.987Z,9.25
2022-09-23T06:51:57.304Z,9.99
2022-09-23T06:54:58.729Z,10.46
2022-09-23T06:58:00.160Z,10.90
2022-09-23T07:01:07.236Z,11.60
2022-09-23T07:04:09.572Z,12.26
2022-09-23T07:07:11.028Z,12.30
2022-09-23T07:10:12.568Z,12.40
2022-09-23T07:13:16.276Z,12.53
2022-09-23T07:16:18.221Z,12.02
2022-09-23T07:19:19.620Z,12.53
2022-09-23T07:22:22.482Z,13.69
2022-09-23T07:25:23.817Z,14.34
2022-09-23T07:28:25.279Z,13.65
2022-09-23T07:31:38.748Z,13.86
2022-09-23T07:34:41.205Z,13.74
2022-09-23T07:37:42.527Z,13.91
2022-09-23T07:40:43.973Z,13.76
2022-09-23T07:43:46.311Z,13.48
2022-09-23T07:46:48.743Z,12.70
2022-09-23T07:49:50.141Z,12.34
2022-09-23T07:52:51.457Z,12.38
2022-09-23T07:55:54.990Z,12.53
2022-09-23T07:58:56.605Z,12.99
2022-09-23T08:01:58.030Z,12.95
2022-09-23T08:04:59.401Z,13.05
2022-09-23T08:08:00.882Z,13.42
2022-09-23T08:11:05.182Z,13.65
2022-09-23T08:14:06.551Z,13.18
2022-09-23T08:17:08.746Z,13.07
2022-09-23T08:20:10.603Z,13.13
2022-09-23T08:23:12.252Z,14.38
2022-09-23T08:26:19.759Z,15.02
2022-09-23T08:29:25.139Z,14.93
2022-09-23T08:32:26.414Z,14.56
2022-09-23T08:35:27.734Z,14.35
2022-09-23T08:38:29.564Z,14.23
2022-09-23T08:41:56.071Z,13.88
2022-09-23T08:45:04.671Z,13.98
2022-09-23T08:48:13.349Z,14.01
2022-09-23T08:51:20.163Z,14.04
2022-09-23T08:54:21.770Z,14.34
2022-09-23T08:58:23.862Z,14.64
2022-09-23T09:01:43.362Z,14.77
2022-09-23T09:04:49.200Z,14.88
2022-09-23T09:07:53.648Z,14.78
2022-09-23T09:10:57.300Z,14.97
2022-09-23T09:14:11.130Z,15.05
2022-09-23T09:17:37.976Z,14.86
2022-09-23T09:21:12.545Z,14.72
2022-09-23T09:24:34.449Z,15.17
2022-09-23T09:27:40.605Z,15.41
2022-09-23T09:30:48.222Z,15.52
2022-09-23T09:34:11.675Z,15.85
2022-09-23T09:37:38.557Z,15.94
2022-09-23T09:40:45.930Z,16.04
2022-09-23T09:43:48.038Z,15.73
2022-09-23T09:47:14.879Z,15.63
2022-09-23T09:50:19.337Z,15.92
2022-09-23T09:53:31.333Z,16.21
2022-09-23T09:56:35.599Z,16.26
2022-09-23T09:59:37.058Z,16.21
2022-09-23T10:02:39.605Z,15.95
2022-09-23T10:05:43.723Z,15.87
2022-09-23T10:09:03.188Z,16.05
2022-09-23T10:12:17.033Z,16.03
2022-09-23T10:15:45.321Z,16.11
2022-09-23T10:18:46.861Z,16.26
2022-09-23T10:21:52.934Z,16.09
2022-09-23T10:24:54.779Z,16.07
2022-09-23T10:27:56.206Z,16.23
2022-09-23T10:31:06.567Z,16.35
2022-09-23T10:34:27.195Z,16.50
2022-09-23T10:38:04.110Z,16.55
2022-09-23T10:41:30.784Z,16.69
2022-09-23T10:44:56.901Z,16.62
2022-09-23T10:48:37.262Z,16.76
2022-09-23T10:51:44.676Z,16.97
2022-09-23T10:55:20.231Z,17.01
2022-09-23T10:58:33.471Z,17.04
2022-09-23T11:01:51.203Z,16.59
2022-09-23T11:05:25.416Z,16.90
2022-09-23T11:08:46.992Z,17.03
2022-09-23T11:12:06.353Z,17.03
2022-09-23T11:15:17.287Z,16.95
2022-09-23T11:18:44.781Z,16.93
2022-09-23T11:21:54.307Z,16.75
2022-09-23T11:25:01.615Z,16.74
2022-09-23T11:28:12.169Z,16.80
2022-09-23T11:31:26.046Z,16.66
2022-09-23T11:34:33.251Z,16.71
2022-09-23T11:37:45.350Z,16.86
2022-09-23T11:40:49.665Z,16.64
2022-09-23T11:44:15.353Z,16.75
2022-09-23T11:47:28.061Z,16.83
2022-09-23T11:50:38.047Z,16.84
2022-09-23T11:53:53.484Z,17.04
2022-09-23T11:57:00.019Z,16.96
2022-09-23T12:00:12.562Z,17.12
2022-09-23T12:03:42.793Z,17.11
2022-09-23T12:06:49.802Z,16.96
2022-09-23T12:10:01.998Z,16.96
2022-09-23T12:13:10.903Z,16.96
2022-09-23T12:16:39.863Z,17.03
2022-09-23T12:20:12.335Z,17.13
2022-09-23T12:23:16.369Z,17.24
2022-09-23T12:26:21.965Z,17.26
2022-09-23T12:29:26.230Z,17.13
2022-09-23T12:32:28.359Z,17.24
2022-09-23T12:35:39.835Z,17.40
2022-09-23T12:38:50.321Z,17.48
2022-09-23T12:41:58.240Z,17.52
2022-09-23T12:45:33.795Z,17.40
2022-09-23T12:48:51.022Z,17.42
2022-09-23T12:52:29.101Z,17.29
2022-09-23T12:55:33.162Z,17.33
2022-09-23T12:58:56.586Z,17.31
2022-09-23T13:02:10.071Z,17.08
2022-09-23T13:05:19.405Z,17.31
2022-09-23T13:08:24.744Z,17.36
2022-09-23T13:11:29.568Z,17.32
2022-09-23T13:14:33.485Z,17.43
2022-09-23T13:17:39.998Z,17.40
2022-09-23T13:20:41.517Z,17.43
2022-09-23T13:24:18.057Z,17.31
2022-09-23T13:27:49.262Z,17.35
2022-09-23T13:30:50.670Z,17.52
2022-09-23T13:34:01.685Z,17.63
2022-09-23T13:37:23.215Z,17.61
2022-09-23T13:40:27.341Z,17.49
2022-09-23T13:43:40.286Z,17.44
2022-09-23T13:46:46.622Z,17.51
2022-09-23T13:49:48.386Z,17.48
2022-09-23T13:52:55.440Z,17.54
2022-09-23T13:56:16.084Z,17.47
2022-09-23T13:59:41.549Z,17.41
2022-09-23T14:02:43.675Z,17.36
2022-09-23T14:05:46.006Z,17.40
2022-09-23T14:08:49.379Z,17.33
2022-09-23T14:11:51.665Z,17.33
2022-09-23T14:14:53.127Z,17.29
2022-09-23T14:18:03.508Z,17.28
2022-09-23T14:21:05.765Z,17.25
2022-09-23T14:24:14.938Z,17.19
2022-09-23T14:27:21.709Z,17.17
2022-09-23T14:30:23.088Z,17.11
2022-09-23T14:33:39.044Z,17.18
2022-09-23T14:36:40.398Z,17.17
2022-09-23T14:39:41.817Z,17.24
2022-09-23T14:42:47.745Z,17.19
2022-09-23T14:46:16.187Z,17.06
2022-09-23T14:49:17.674Z,17.10
2022-09-23T14:52:19.018Z,17.04
2022-09-23T14:55:20.381Z,17.05
2022-09-23T14:58:27.640Z,16.90
2022-09-23T15:01:32.335Z,16.92
2022-09-23T15:04:33.976Z,16.88
2022-09-23T15:07:37.937Z,16.84
2022-09-23T15:10:40.511Z,16.79
2022-09-23T15:13:43.161Z,16.78
2022-09-23T15:16:46.267Z,16.83
2022-09-23T15:19:50.623Z,16.58
2022-09-23T15:22:54.584Z,16.77
2022-09-23T15:25:55.930Z,16.84
2022-09-23T15:28:58.740Z,16.77
2022-09-23T15:32:00.245Z,16.68
2022-09-23T15:35:01.658Z,16.76
2022-09-23T15:38:03.174Z,16.73
2022-09-23T15:41:04.653Z,16.69
2022-09-23T15:44:18.355Z,16.66
2022-09-23T15:47:19.783Z,16.64
2022-09-23T15:50:21.282Z,16.60
2022-09-23T15:53:24.939Z,16.53
2022-09-23T15:56:26.340Z,16.45
2022-09-23T15:59:28.420Z,16.37
2022-09-23T16:02:30.038Z,16.21
2022-09-23T16:05:35.857Z,16.09
2022-09-23T16:08:37.370Z,15.97
2022-09-23T16:11:43.224Z,15.91
2022-09-23T16:14:44.553Z,15.85
2022-09-23T16:17:46.046Z,15.74
2022-09-23T16:20:49.136Z,15.64
2022-09-23T16:23:50.620Z,15.27
2022-09-23T16:26:51.970Z,15.46
2022-09-23T16:29:53.306Z,15.44
2022-09-23T16:32:54.883Z,15.38
2022-09-23T16:35:57.252Z,15.35
2022-09-23T16:39:00.716Z,15.32
2022-09-23T16:42:02.085Z,15.24
2022-09-23T16:45:03.684Z,15.19
2022-09-23T16:48:05.677Z,15.21
2022-09-23T16:51:16.225Z,15.18
2022-09-23T16:54:17.648Z,15.18
2022-09-23T16:57:18.993Z,15.19
2022-09-23T17:00:21.019Z,15.20
2022-09-23T17:03:22.406Z,15.13
2022-09-23T17:06:23.745Z,15.09
2022-09-23T17:09:27.830Z,14.98
2022-09-23T17:12:31.842Z,14.89
2022-09-23T17:15:36.019Z,14.84
2022-09-23T17:18:38.098Z,14.73
2022-09-23T17:21:39.503Z,14.61
2022-09-23T17:24:40.967Z,14.58
2022-09-23T17:27:42.330Z,14.55
2022-09-23T17:30:43.653Z,14.50
2022-09-23T17:33:45.047Z,14.51
2022-09-23T17:36:46.436Z,14.47
2022-09-23T17:39:47.763Z,14.41
2022-09-23T17:42:49.109Z,14.40
2022-09-23T17:45:55.776Z,14.35
2022-09-23T17:48:57.634Z,14.28
2022-09-23T17:51:59.009Z,14.26
2022-09-23T17:55:00.320Z,14.27
2022-09-23T17:58:01.665Z,14.26
2022-09-23T18:01:04.754Z,14.21
2022-09-23T18:04:06.333Z,13.85
2022-09-23T18:07:07.741Z,14.03
2022-09-23T18:10:09.348Z,14.03
2022-09-23T18:13:10.781Z,14.03
2022-09-23T18:16:12.190Z,13.99
2022-09-23T18:19:16.269Z,13.96
2022-09-23T18:22:17.605Z,13.90
2022-09-23T18:25:38.010Z,13.87
2022-09-23T18:28:39.839Z,13.88
2022-09-23T18:31:41.728Z,13.98
2022-09-23T18:34:43.163Z,14.04
2022-09-23T18:37:44.489Z,14.06
2022-09-23T18:40:53.045Z,14.10
2022-09-23T18:43:54.887Z,14.10
2022-09-23T18:46:56.226Z,14.08
2022-09-23T18:49:57.639Z,14.08
2022-09-23T18:52:59.479Z,14.07
2022-09-23T18:56:11.912Z,14.07
2022-09-23T18:59:17.701Z,14.03
2022-09-23T19:02:19.124Z,14.04
2022-09-23T19:05:20.516Z,14.06
2022-09-23T19:08:21.828Z,14.05
2022-09-23T19:11:23.754Z,14.03
2022-09-23T19:14:25.080Z,14.00
2022-09-23T19:17:26.415Z,13.94
2022-09-23T19:20:27.725Z,13.91
2022-09-23T19:23:31.461Z,13.90
2022-09-23T19:26:35.663Z,13.86
2022-09-23T19:29:37.004Z,13.82
2022-09-23T19:32:38.329Z,13.84
2022-09-23T19:35:47.361Z,13.82
2022-09-23T19:38:48.701Z,13.80
2022-09-23T19:41:51.247Z,13.78
2022-09-23T19:44:52.592Z,13.72
2022-09-23T19:47:54.757Z,13.71
2022-09-23T19:50:56.318Z,13.61
2022-09-23T19:53:57.651Z,13.58
2022-09-23T19:56:58.981Z,13.52
2022-09-23T20:00:00.508Z,13.46
2022-09-23T20:03:01.935Z,13.40
2022-09-23T20:06:03.405Z,13.36
2022-09-23T20:09:05.113Z,13.32
2022-09-23T20:12:06.661Z,13.21
2022-09-23T20:15:09.198Z,13.15
2022-09-23T20:18:10.634Z,13.06
2022-09-23T20:21:14.511Z,13.05
2022-09-23T20:24:15.854Z,12.97
2022-09-23T20:27:17.202Z,12.93
2022-09-23T20:30:19.338Z,12.87
2022-09-23T20:33:20.686Z,12.68
2022-09-23T20:36:22.010Z,12.67
2022-09-23T20:39:23.346Z,12.67
2022-09-23T20:42:24.683Z,12.67
2022-09-23T20:45:26.010Z,12.66
2022-09-23T20:48:29.431Z,12.62
2022-09-23T20:51:30.903Z,12.67
2022-09-23T20:54:32.239Z,12.67
2022-09-23T20:57:33.564Z,12.66
2022-09-23T21:00:34.957Z,12.57
2022-09-23T21:03:41.664Z,12.55
2022-09-23T21:06:43.075Z,12.51
2022-09-23T21:09:44.394Z,12.41
2022-09-23T21:12:47.935Z,12.27
2022-09-23T21:15:49.699Z,12.24
2022-09-23T21:18:51.915Z,12.30
2022-09-23T21:21:53.355Z,12.26
2022-09-23T21:25:26.181Z,12.18
2022-09-23T21:28:16.007Z,12.22
2022-09-23T21:31:20.235Z,12.06
2022-09-23T21:34:21.621Z,12.04
2022-09-23T21:37:22.964Z,12.06
2022-09-23T21:40:24.443Z,12.02
2022-09-23T21:43:27.503Z,12.05
2022-09-23T21:46:29.034Z,12.05
2022-09-23T21:49:30.461Z,12.13
2022-09-23T21:52:31.788Z,12.19
2022-09-23T21:55:33.244Z,12.16
2022-09-23T21:58:35.713Z,12.18
2022-09-23T22:01:40.558Z,12.14
2022-09-23T22:04:41.980Z,12.05
2022-09-23T22:07:43.400Z,12.05
2022-09-23T22:10:44.728Z,12.13
2022-09-23T22:13:46.081Z,12.12
2022-09-23T22:16:47.554Z,12.12
2022-09-23T22:19:49.177Z,12.09
2022-09-23T22:22:50.518Z,12.08
2022-09-23T22:25:59.507Z,12.13
2022-09-23T22:29:06.015Z,12.07
2022-09-23T22:32:11.552Z,12.07
2022-09-23T22:35:16.893Z,12.05
2022-09-23T22:38:18.251Z,12.01
2022-09-23T22:41:19.626Z,11.97
2022-09-23T22:44:21.262Z,11.99
2022-09-23T22:47:22.970Z,11.98
2022-09-23T22:50:24.302Z,11.93
2022-09-23T22:53:27.611Z,11.92
2022-09-23T22:56:28.996Z,11.66
2022-09-23T22:59:30.506Z,11.83
2022-09-23T23:02:31.854Z,11.86
2022-09-23T23:05:33.203Z,11.84
2022-09-23T23:08:35.655Z,11.87
2022-09-23T23:11:37.656Z,11.83
2022-09-23T23:14:39.010Z,11.86
2022-09-23T23:17:40.389Z,11.81
2022-09-23T23:20:41.721Z,11.79
2022-09-23T23:23:53.380Z,11.82
2022-09-23T23:26:54.743Z,11.78
2022-09-23T23:29:56.097Z,11.73
2022-09-23T23:32:57.431Z,11.63
2022-09-23T23:35:58.867Z,11.54
2022-09-23T23:39:00.244Z,11.56
2022-09-23T23:42:01.635Z,11.63
2022-09-23T23:45:03.231Z,11.66
2022-09-23T23:48:04.596Z,11.65
2022-09-23T23:51:07.721Z,11.62
2022-09-23T23:54:10.630Z,11.56
2022-09-23T23:57:11.996Z,11.55
